createdAt,value
2019-03-05T00:04:00.629Z,90.40
2019-03-05T00:06:54.191Z,90.20
2019-03-05T00:09:38.921Z,90.50
2019-03-05T00:12:23.345Z,90.40
2019-03-05T00:15:08.568Z,89.40
2019-03-05T00:17:53.075Z,90.00
2019-03-05T00:20:38.092Z,90.30
2019-03-05T00:23:22.432Z,90.70
2019-03-05T00:26:07.320Z,90.80
2019-03-05T00:28:51.992Z,91.30
2019-03-05T00:31:36.949Z,90.90
2019-03-05T00:34:21.047Z,90.70
2019-03-05T00:37:14.895Z,90.90
2019-03-05T00:39:59.439Z,90.90
2019-03-05T00:42:44.431Z,90.80
2019-03-05T00:45:28.940Z,91.10
2019-03-05T00:48:13.685Z,91.20
2019-03-05T00:50:58.116Z,91.40
2019-03-05T00:53:42.700Z,91.50
2019-03-05T00:56:28.188Z,91.80
2019-03-05T00:59:13.016Z,91.30
2019-03-05T01:01:57.841Z,91.20
2019-03-05T01:04:42.506Z,90.90
2019-03-05T01:07:27.175Z,90.60
2019-03-05T01:10:11.991Z,90.70
2019-03-05T01:12:56.311Z,90.40
2019-03-05T01:15:49.197Z,90.10
2019-03-05T01:18:33.899Z,89.10
2019-03-05T01:21:18.409Z,88.30
2019-03-05T01:24:11.808Z,87.90
2019-03-05T01:26:56.206Z,88.50
2019-03-05T01:29:41.368Z,88.00
2019-03-05T01:32:43.060Z,88.90
2019-03-05T01:42:46.524Z,90.50
2019-03-05T01:45:31.522Z,90.10
2019-03-05T01:48:15.975Z,90.20
2019-03-05T01:51:01.175Z,90.40
2019-03-05T01:53:45.959Z,90.60
2019-03-05T01:56:31.356Z,90.60
2019-03-05T01:59:25.660Z,90.90
2019-03-05T02:02:19.584Z,90.90
2019-03-05T02:05:04.325Z,91.00
2019-03-05T02:07:58.372Z,91.30
2019-03-05T02:10:43.152Z,90.90
2019-03-05T02:13:27.717Z,90.90
2019-03-05T02:16:12.332Z,90.90
2019-03-05T02:18:57.155Z,90.90
2019-03-05T02:21:41.399Z,91.30
2019-03-05T02:24:34.608Z,90.80
2019-03-05T02:27:47.071Z,90.60
2019-03-05T02:30:40.868Z,90.40
2019-03-05T02:33:25.499Z,90.30
2019-03-05T02:36:10.036Z,89.60
2019-03-05T02:38:55.049Z,90.10
2019-03-05T02:41:39.673Z,90.30
2019-03-05T02:44:24.563Z,90.50
2019-03-05T02:47:09.747Z,90.70
2019-03-05T02:49:55.107Z,90.50
2019-03-05T02:52:48.348Z,90.80
2019-03-05T02:55:33.167Z,90.70
2019-03-05T02:58:18.079Z,90.90
2019-03-05T03:01:21.786Z,91.00
2019-03-05T03:04:10.572Z,91.00
2019-03-05T03:07:15.642Z,91.00
2019-03-05T03:10:00.335Z,91.00
2019-03-05T03:12:45.211Z,91.00
2019-03-05T03:15:30.330Z,91.10
2019-03-05T03:18:15.340Z,91.00
2019-03-05T03:21:09.251Z,91.00
2019-03-05T03:23:54.163Z,90.90
2019-03-05T03:26:48.299Z,91.00
2019-03-05T03:29:42.349Z,90.30
2019-03-05T03:32:36.285Z,89.90
2019-03-05T03:35:21.145Z,89.50
2019-03-05T03:38:14.571Z,89.10
2019-03-05T03:40:59.160Z,89.50
2019-03-05T03:43:43.868Z,89.70
2019-03-05T03:46:28.510Z,89.40
2019-03-05T03:49:22.160Z,89.10
2019-03-05T03:52:06.823Z,89.30
2019-03-05T03:54:51.142Z,89.10
2019-03-05T03:57:35.456Z,88.90
2019-03-05T04:00:28.817Z,89.40
2019-03-05T04:03:13.554Z,89.00
2019-03-05T04:05:58.715Z,88.40
2019-03-05T04:08:43.045Z,88.90
2019-03-05T04:11:27.914Z,89.90
2019-03-05T04:14:12.275Z,89.00
2019-03-05T04:16:56.779Z,89.30
2019-03-05T04:19:50.297Z,89.10
2019-03-05T04:22:34.917Z,89.30
2019-03-05T04:25:21.172Z,89.20
2019-03-05T04:28:06.018Z,89.90
2019-03-05T04:30:50.726Z,90.40
2019-03-05T04:33:35.643Z,90.60
2019-03-05T04:36:20.359Z,90.50
2019-03-05T04:39:05.627Z,90.30
2019-03-05T04:41:59.576Z,90.00
2019-03-05T04:48:27.458Z,90.00
2019-03-05T04:54:27.132Z,90.30
2019-03-05T04:57:11.721Z,90.00
2019-03-05T04:59:56.576Z,89.50
2019-03-05T05:02:41.015Z,90.00
2019-03-05T05:05:25.516Z,90.30
2019-03-05T05:08:18.669Z,90.60
2019-03-05T05:11:03.585Z,90.80
2019-03-05T05:13:47.862Z,90.90
2019-03-05T05:16:32.684Z,90.90
2019-03-05T05:19:17.659Z,91.10
2019-03-05T05:22:00.813Z,91.00
2019-03-05T05:24:52.777Z,91.10
2019-03-05T05:27:38.108Z,91.00
2019-03-05T05:30:31.772Z,90.80
2019-03-05T05:33:16.727Z,90.80
2019-03-05T05:36:10.459Z,90.80
2019-03-05T05:38:56.592Z,90.60
2019-03-05T05:41:41.228Z,90.50
2019-03-05T05:44:26.368Z,90.10
2019-03-05T05:47:11.059Z,90.30
2019-03-05T05:49:55.703Z,90.20
2019-03-05T05:52:40.532Z,90.00
2019-03-05T05:55:25.311Z,90.10
2019-03-05T05:58:09.909Z,89.40
2019-03-05T06:00:56.947Z,88.40
2019-03-05T06:03:41.549Z,87.90
2019-03-05T06:06:26.096Z,88.00
2019-03-05T06:09:10.572Z,88.00
2019-03-05T06:11:55.464Z,87.60
2019-03-05T06:14:40.551Z,88.80
2019-03-05T06:17:25.624Z,88.70
2019-03-05T06:20:10.499Z,88.50
2019-03-05T06:22:55.348Z,88.60
2019-03-05T06:25:40.433Z,87.80
2019-03-05T06:28:34.521Z,86.80
2019-03-05T06:31:18.635Z,86.80
2019-03-05T06:34:03.320Z,86.00
2019-03-05T06:36:47.864Z,85.20
2019-03-05T06:39:31.348Z,84.60
2019-03-05T06:42:23.307Z,84.00
2019-03-05T06:45:08.089Z,83.60
2019-03-05T06:47:53.291Z,83.30
2019-03-05T06:50:46.739Z,83.00
2019-03-05T06:53:31.739Z,82.60
2019-03-05T06:56:16.776Z,82.40
2019-03-05T06:59:10.630Z,82.10
2019-03-05T07:01:55.763Z,81.40
2019-03-05T07:05:08.272Z,81.40
2019-03-05T07:07:52.947Z,82.00
2019-03-05T07:10:37.496Z,81.60
2019-03-05T07:13:22.177Z,81.90
2019-03-05T07:16:15.866Z,81.80
2019-03-05T07:19:09.897Z,81.30
2019-03-05T07:21:54.459Z,80.50
2019-03-05T07:24:39.526Z,79.60
2019-03-05T07:27:24.415Z,79.40
2019-03-05T07:30:09.132Z,80.10
2019-03-05T07:32:53.492Z,80.30
2019-03-05T07:35:37.762Z,78.80
2019-03-05T07:38:22.839Z,78.80
2019-03-05T07:41:08.488Z,79.00
2019-03-05T07:44:02.653Z,78.00
2019-03-05T07:46:55.999Z,76.50
2019-03-05T07:49:44.194Z,75.10
2019-03-05T07:52:27.212Z,74.30
2019-03-05T07:55:13.807Z,73.90
2019-03-05T07:58:07.498Z,74.00
2019-03-05T08:00:52.254Z,73.00
2019-03-05T08:03:36.912Z,74.00
2019-03-05T08:06:21.666Z,74.50
2019-03-05T08:09:07.195Z,74.70
2019-03-05T08:12:01.355Z,75.60
2019-03-05T08:14:45.856Z,75.80
2019-03-05T08:17:30.839Z,75.50
2019-03-05T08:20:15.432Z,75.80
2019-03-05T08:23:00.147Z,74.50
2019-03-05T08:25:45.144Z,74.30
2019-03-05T08:28:29.735Z,73.10
2019-03-05T08:31:14.379Z,73.00
2019-03-05T08:33:59.461Z,72.30
2019-03-05T08:36:44.556Z,72.60
2019-03-05T08:39:29.308Z,72.30
2019-03-05T08:42:14.303Z,71.70
2019-03-05T08:45:08.644Z,71.00
2019-03-05T08:48:02.316Z,70.90
2019-03-05T08:50:47.225Z,68.60
2019-03-05T08:53:31.816Z,67.90
2019-03-05T08:56:16.795Z,68.70
2019-03-05T08:59:01.702Z,67.90
2019-03-05T09:01:55.836Z,67.60
2019-03-05T09:04:40.523Z,67.60
2019-03-05T09:07:34.438Z,67.30
2019-03-05T09:10:19.646Z,65.20
2019-03-05T09:13:13.464Z,66.00
2019-03-05T09:15:58.720Z,62.60
2019-03-05T09:18:52.399Z,60.60
2019-03-05T09:21:37.420Z,60.60
2019-03-05T09:24:22.168Z,61.20
2019-03-05T09:27:16.253Z,60.40
2019-03-05T09:30:01.542Z,59.40
2019-03-05T09:32:57.852Z,57.40
2019-03-05T09:35:42.836Z,55.80
2019-03-05T09:38:27.480Z,56.00
2019-03-05T09:41:12.771Z,55.00
2019-03-05T09:43:57.503Z,54.50
2019-03-05T09:46:42.147Z,55.80
2019-03-05T09:49:29.760Z,54.90
2019-03-05T09:52:14.296Z,54.60
2019-03-05T09:54:59.292Z,54.10
2019-03-05T09:57:43.956Z,54.20
2019-03-05T10:00:29.173Z,54.00
2019-03-05T10:03:14.310Z,53.10
2019-03-05T10:06:00.722Z,52.10
2019-03-05T10:08:47.148Z,52.30
2019-03-05T10:11:31.848Z,52.20
2019-03-05T10:14:17.020Z,52.70
2019-03-05T10:17:10.655Z,51.10
2019-03-05T10:19:55.468Z,50.20
2019-03-05T10:22:40.480Z,50.20
2019-03-05T10:25:25.424Z,51.50
2019-03-05T10:28:10.574Z,50.40
2019-03-05T10:31:04.056Z,49.30
2019-03-05T10:33:48.359Z,49.20
2019-03-05T10:36:33.120Z,49.30
2019-03-05T10:39:29.653Z,48.90
2019-03-05T10:42:04.557Z,49.30
2019-03-05T10:44:49.535Z,49.60
2019-03-05T10:47:34.407Z,49.30
2019-03-05T10:50:19.496Z,50.50
2019-03-05T10:53:04.168Z,49.50
2019-03-05T10:55:49.560Z,50.10
2019-03-05T10:58:42.868Z,50.60
2019-03-05T11:01:28.019Z,49.30
2019-03-05T11:04:13.117Z,49.20
2019-03-05T11:07:06.972Z,49.30
2019-03-05T11:09:51.459Z,49.70
2019-03-05T11:12:36.044Z,49.30
2019-03-05T11:15:20.654Z,48.60
2019-03-05T11:18:05.261Z,48.00
2019-03-05T11:20:50.347Z,49.30
2019-03-05T11:23:45.172Z,50.00
2019-03-05T11:26:30.017Z,49.90
2019-03-05T11:29:15.048Z,50.90
2019-03-05T11:32:08.511Z,50.80
2019-03-05T11:34:53.335Z,51.10
2019-03-05T11:37:38.361Z,51.10
2019-03-05T11:40:23.180Z,51.50
2019-03-05T11:43:08.054Z,51.20
2019-03-05T11:45:52.760Z,51.80
2019-03-05T11:48:37.035Z,52.00
2019-03-05T11:51:22.059Z,52.60
2019-03-05T11:54:07.324Z,52.50
2019-03-05T11:56:51.861Z,52.80
2019-03-05T11:59:36.616Z,53.30
2019-03-05T12:02:22.029Z,53.40
2019-03-05T12:05:15.553Z,53.70
2019-03-05T12:08:00.744Z,53.90
2019-03-05T12:10:45.668Z,53.80
2019-03-05T12:13:39.412Z,54.10
2019-03-05T12:16:24.396Z,54.60
2019-03-05T12:19:09.571Z,54.90
2019-03-05T12:22:03.191Z,55.20
2019-03-05T12:24:47.721Z,55.50
2019-03-05T12:27:32.191Z,55.50
2019-03-05T12:30:16.505Z,55.10
2019-03-05T12:33:12.744Z,55.40
2019-03-05T12:35:57.604Z,55.90
2019-03-05T12:38:42.608Z,56.40
2019-03-05T12:41:28.396Z,56.80
2019-03-05T12:44:15.008Z,57.20
2019-03-05T12:46:58.199Z,57.60
2019-03-05T12:49:53.499Z,57.70
2019-03-05T12:52:47.372Z,58.00
2019-03-05T12:55:41.496Z,58.30
2019-03-05T12:58:24.824Z,58.20
2019-03-05T13:01:18.740Z,58.50
2019-03-05T13:04:03.235Z,58.90
2019-03-05T13:06:48.184Z,58.40
2019-03-05T13:09:32.893Z,58.60
2019-03-05T13:12:17.499Z,58.90
2019-03-05T13:15:02.703Z,58.40
2019-03-05T13:17:51.479Z,59.10
2019-03-05T13:20:35.618Z,59.50
2019-03-05T13:23:29.808Z,60.10
2019-03-05T13:26:24.172Z,60.80
2019-03-05T13:29:19.303Z,62.00
2019-03-05T13:32:03.963Z,63.20
2019-03-05T13:34:48.933Z,63.80
2019-03-05T13:37:34.012Z,63.60
2019-03-05T13:40:18.331Z,63.30
2019-03-05T13:43:02.891Z,64.20
2019-03-05T13:45:50.265Z,65.70
2019-03-05T13:48:34.571Z,68.20
2019-03-05T13:51:19.521Z,70.20
2019-03-05T13:54:09.543Z,71.90
2019-03-05T13:56:52.988Z,72.80
2019-03-05T13:59:46.792Z,73.80
2019-03-05T14:02:40.547Z,74.90
2019-03-05T14:05:25.634Z,75.10
2019-03-05T14:08:19.165Z,77.30
2019-03-05T14:11:05.865Z,78.10
2019-03-05T14:13:51.057Z,76.60
2019-03-05T14:16:45.136Z,78.20
2019-03-05T14:19:43.003Z,79.60
2019-03-05T14:22:36.480Z,81.00
2019-03-05T14:25:21.287Z,80.80
2019-03-05T14:28:06.453Z,80.90
2019-03-05T14:30:51.046Z,81.10
2019-03-05T14:33:36.513Z,82.20
2019-03-05T14:36:30.336Z,80.80
2019-03-05T14:39:18.284Z,81.70
2019-03-05T14:42:03.714Z,82.80
2019-03-05T14:44:48.832Z,83.60
2019-03-05T14:47:33.788Z,82.80
2019-03-05T14:50:18.466Z,82.50
2019-03-05T14:53:03.774Z,84.20
2019-03-05T14:55:48.624Z,84.80
2019-03-05T14:58:33.681Z,85.50
2019-03-05T15:01:27.716Z,86.10
2019-03-05T15:04:13.529Z,84.20
2019-03-05T15:06:58.004Z,84.60
2019-03-05T15:09:42.930Z,83.10
2019-03-05T15:12:27.706Z,83.00
2019-03-05T15:15:12.438Z,83.40
2019-03-05T15:17:58.185Z,83.90
2019-03-05T15:20:42.837Z,84.70
2019-03-05T15:23:27.641Z,85.00
2019-03-05T15:26:12.601Z,83.00
2019-03-05T15:29:07.388Z,83.60
2019-03-05T15:32:01.170Z,84.10
2019-03-05T15:34:56.355Z,85.90
2019-03-05T15:37:41.446Z,84.50
2019-03-05T15:40:35.452Z,85.30
2019-03-05T15:43:20.262Z,87.00
2019-03-05T15:46:05.257Z,86.10
2019-03-05T15:48:59.674Z,85.70
2019-03-05T15:51:53.330Z,87.00
2019-03-05T15:54:38.345Z,87.00
2019-03-05T15:57:32.236Z,88.70
2019-03-05T16:00:17.431Z,90.10
2019-03-05T16:03:12.116Z,90.20
2019-03-05T16:05:57.726Z,90.30
2019-03-05T16:08:52.596Z,90.40
2019-03-05T16:11:37.512Z,90.10
2019-03-05T16:14:32.952Z,90.20
2019-03-05T16:17:18.717Z,87.80
2019-03-05T16:20:03.988Z,87.90
2019-03-05T16:22:51.095Z,88.90
2019-03-05T16:25:35.272Z,88.70
2019-03-05T16:28:18.448Z,89.70
2019-03-05T16:35:07.336Z,90.80
2019-03-05T16:38:29.252Z,90.80
2019-03-05T16:41:32.714Z,91.00
2019-03-05T16:44:36.519Z,91.00
2019-03-05T16:47:57.456Z,91.50
2019-03-05T16:51:01.401Z,91.60
2019-03-05T16:54:32.607Z,90.80
2019-03-05T16:57:53.787Z,88.60
2019-03-05T17:01:17.344Z,89.60
2019-03-05T17:04:40.303Z,86.90
2019-03-05T17:07:43.905Z,84.40
2019-03-05T17:10:48.120Z,84.70
2019-03-05T17:13:32.651Z,84.80
2019-03-05T17:16:17.793Z,83.10
2019-03-05T17:19:02.419Z,81.40
2019-03-05T17:21:47.313Z,81.30
2019-03-05T17:24:33.413Z,83.50
2019-03-05T17:27:26.987Z,87.00
2019-03-05T17:30:20.651Z,87.10
2019-03-05T17:33:06.415Z,87.80
2019-03-05T17:35:52.060Z,88.10
2019-03-05T17:38:37.329Z,87.50
2019-03-05T17:41:31.375Z,88.20
2019-03-05T17:44:25.319Z,88.10
2019-03-05T17:47:09.840Z,87.10
2019-03-05T17:49:54.988Z,86.10
2019-03-05T17:52:49.316Z,85.20
2019-03-05T17:55:43.720Z,85.20
2019-03-05T17:58:36.859Z,85.30
2019-03-05T18:01:21.956Z,85.30
2019-03-05T18:04:06.525Z,83.80
2019-03-05T18:06:51.119Z,84.00
2019-03-05T18:09:36.375Z,85.30
2019-03-05T18:12:20.864Z,85.20
2019-03-05T18:15:05.643Z,84.80
2019-03-05T18:17:52.248Z,85.00
2019-03-05T18:20:37.577Z,83.50
2019-03-05T18:23:31.477Z,85.20
2019-03-05T18:26:15.668Z,84.70
2019-03-05T18:29:00.536Z,86.40
2019-03-05T18:31:45.274Z,88.60
2019-03-05T18:34:30.420Z,89.90
2019-03-05T18:37:15.793Z,87.90
2019-03-05T18:40:09.560Z,88.40
2019-03-05T18:42:53.963Z,89.70
2019-03-05T18:45:38.760Z,88.50
2019-03-05T18:48:23.708Z,89.00
2019-03-05T18:51:09.059Z,88.80
2019-03-05T18:53:54.027Z,90.00
2019-03-05T18:56:38.387Z,89.90
2019-03-05T18:59:23.074Z,90.60
2019-03-05T19:02:07.912Z,91.00
2019-03-05T19:04:53.167Z,91.00
2019-03-05T19:07:37.863Z,90.90
2019-03-05T19:10:32.024Z,90.50
2019-03-05T19:13:17.039Z,90.10
2019-03-05T19:16:11.132Z,90.70
2019-03-05T19:18:56.136Z,91.20
2019-03-05T19:22:09.976Z,91.80
2019-03-05T19:24:55.177Z,91.90
2019-03-05T19:27:49.276Z,92.60
2019-03-05T19:30:34.232Z,92.80
2019-03-05T19:33:27.715Z,93.00
2019-03-05T19:36:12.111Z,93.30
2019-03-05T19:38:57.572Z,93.50
2019-03-05T19:41:41.873Z,93.50
2019-03-05T19:44:28.917Z,93.50
2019-03-05T19:47:13.395Z,93.80
2019-03-05T19:49:58.435Z,94.00
2019-03-05T19:52:42.970Z,94.10
2019-03-05T19:55:28.005Z,94.30
2019-03-05T19:58:13.277Z,94.30
2019-03-05T20:01:11.522Z,94.20
2019-03-05T20:03:56.040Z,94.40
2019-03-05T20:06:41.309Z,94.30
2019-03-05T20:09:25.945Z,94.00
2019-03-05T20:12:10.416Z,93.90
2019-03-05T20:14:54.791Z,94.10
2019-03-05T20:17:48.784Z,94.10
2019-03-05T20:20:42.378Z,94.20
2019-03-05T20:23:27.343Z,94.70
2019-03-05T20:26:12.037Z,94.40
2019-03-05T20:28:57.861Z,94.40
2019-03-05T20:31:42.843Z,93.70
2019-03-05T20:34:26.206Z,93.50
2019-03-05T20:37:18.464Z,93.40
2019-03-05T20:40:22.124Z,93.30
2019-03-05T20:43:16.023Z,93.40
2019-03-05T20:46:01.519Z,93.20
2019-03-05T20:48:46.471Z,93.30
2019-03-05T20:51:31.779Z,93.10
2019-03-05T20:54:17.376Z,92.90
2019-03-05T20:57:10.924Z,92.90
2019-03-05T20:59:55.630Z,92.50
2019-03-05T21:02:40.486Z,92.00
2019-03-05T21:05:25.620Z,92.10
2019-03-05T21:08:19.444Z,91.70
2019-03-05T21:11:04.668Z,91.80
2019-03-05T21:13:58.536Z,91.50
2019-03-05T21:16:43.703Z,91.10
2019-03-05T21:19:38.882Z,91.50
2019-03-05T21:22:32.980Z,91.30
2019-03-05T21:25:17.883Z,91.50
2019-03-05T21:28:20.500Z,92.20
2019-03-05T21:31:05.194Z,91.90
2019-03-05T21:33:51.920Z,91.60
2019-03-05T21:36:36.475Z,91.30
2019-03-05T21:39:20.888Z,91.60
2019-03-05T21:42:14.728Z,90.90
2019-03-05T21:45:08.708Z,90.80
2019-03-05T21:47:53.384Z,91.10
2019-03-05T21:50:36.870Z,91.50
2019-03-05T21:53:30.333Z,91.10
2019-03-05T21:56:15.340Z,91.30
2019-03-05T21:58:59.936Z,91.40
2019-03-05T22:01:44.730Z,91.70
2019-03-05T22:04:29.367Z,92.00
2019-03-05T22:07:14.443Z,92.00
2019-03-05T22:09:59.691Z,92.00
2019-03-05T22:12:44.791Z,92.00
2019-03-05T22:15:38.760Z,92.00
2019-03-05T22:18:32.424Z,92.00
2019-03-05T22:21:17.288Z,91.90
2019-03-05T22:24:01.785Z,91.80
2019-03-05T22:26:46.144Z,91.70
2019-03-05T22:29:30.639Z,91.30
2019-03-05T22:32:24.267Z,91.70
2019-03-05T22:35:09.279Z,92.10
2019-03-05T22:38:03.389Z,91.90
2019-03-05T22:40:48.139Z,91.50
2019-03-05T22:43:42.411Z,91.70
2019-03-05T22:46:36.780Z,92.00
2019-03-05T22:49:30.877Z,92.20
2019-03-05T22:52:24.648Z,92.00
2019-03-05T22:55:09.047Z,92.40
2019-03-05T22:57:54.088Z,92.40
2019-03-05T23:00:44.659Z,92.50
2019-03-05T23:03:48.348Z,92.60
2019-03-05T23:06:41.629Z,92.70
2019-03-05T23:09:27.163Z,93.00
2019-03-05T23:12:20.766Z,93.00
2019-03-05T23:15:06.400Z,93.20
2019-03-05T23:17:51.783Z,93.00
2019-03-05T23:20:36.379Z,92.70
2019-03-05T23:23:21.391Z,93.00
2019-03-05T23:26:06.449Z,92.40
2019-03-05T23:28:49.878Z,92.50
2019-03-05T23:31:42.213Z,92.40
2019-03-05T23:34:46.318Z,92.50
2019-03-05T23:37:30.907Z,92.30
2019-03-05T23:40:15.931Z,92.10
2019-03-05T23:43:00.236Z,92.00
2019-03-05T23:45:44.595Z,92.00
2019-03-05T23:48:40.747Z,92.90
2019-03-05T23:51:25.868Z,92.30
2019-03-05T23:54:10.936Z,92.70
2019-03-05T23:56:56.168Z,92.70
2019-03-05T23:59:49.658Z,92.30
